地図

経路データ

SID SEASON NUMBER BASIN SUBBASIN NAME ISO_TIME NATURE LAT LON WMO_WIND WMO_PRES WMO_AGENCY TRACK_TYPE DIST2LAND LANDFALL IFLAG USA_AGENCY USA_ATCF_ID USA_LAT USA_LON USA_RECORD USA_STATUS USA_WIND USA_PRES USA_SSHS USA_R34_NE USA_R34_SE USA_R34_SW USA_R34_NW USA_R50_NE USA_R50_SE USA_R50_SW USA_R50_NW USA_R64_NE USA_R64_SE USA_R64_SW USA_R64_NW USA_POCI USA_ROCI USA_RMW USA_EYE TOKYO_LAT TOKYO_LON TOKYO_GRADE TOKYO_WIND TOKYO_PRES TOKYO_R50_DIR TOKYO_R50_LONG TOKYO_R50_SHORT TOKYO_R30_DIR TOKYO_R30_LONG TOKYO_R30_SHORT TOKYO_LAND CMA_LAT CMA_LON CMA_CAT CMA_WIND CMA_PRES HKO_LAT HKO_LON HKO_CAT HKO_WIND HKO_PRES NEWDELHI_LAT NEWDELHI_LON NEWDELHI_GRADE NEWDELHI_WIND NEWDELHI_PRES NEWDELHI_CI NEWDELHI_DP NEWDELHI_POCI REUNION_LAT REUNION_LON REUNION_TYPE REUNION_WIND REUNION_PRES REUNION_TNUM REUNION_CI REUNION_RMW REUNION_R34_NE REUNION_R34_SE REUNION_R34_SW REUNION_R34_NW REUNION_R50_NE REUNION_R50_SE REUNION_R50_SW REUNION_R50_NW REUNION_R64_NE REUNION_R64_SE REUNION_R64_SW REUNION_R64_NW BOM_LAT BOM_LON BOM_TYPE BOM_WIND BOM_PRES BOM_TNUM BOM_CI BOM_RMW BOM_R34_NE BOM_R34_SE BOM_R34_SW BOM_R34_NW BOM_R50_NE BOM_R50_SE BOM_R50_SW BOM_R50_NW BOM_R64_NE BOM_R64_SE BOM_R64_SW BOM_R64_NW BOM_ROCI BOM_POCI BOM_EYE BOM_POS_METHOD BOM_PRES_METHOD NADI_LAT NADI_LON NADI_CAT NADI_WIND NADI_PRES WELLINGTON_LAT WELLINGTON_LON WELLINGTON_WIND WELLINGTON_PRES DS824_LAT DS824_LON DS824_STAGE DS824_WIND DS824_PRES TD9636_LAT TD9636_LON TD9636_STAGE TD9636_WIND TD9636_PRES TD9635_LAT TD9635_LON TD9635_WIND TD9635_PRES TD9635_ROCI NEUMANN_LAT NEUMANN_LON NEUMANN_CLASS NEUMANN_WIND NEUMANN_PRES MLC_LAT MLC_LON MLC_CLASS MLC_WIND MLC_PRES USA_GUST BOM_GUST BOM_GUST_PER REUNION_GUST REUNION_GUST_PER USA_SEAHGT USA_SEARAD_NE USA_SEARAD_SE USA_SEARAD_SW USA_SEARAD_NW STORM_SPEED STORM_DIR
2015348N04146 2015 109 WP MM NOT_NAMED 2015-12-14 00:00:00 NR 3.90000 145.800 main 678 678 O_____________ jtwc_wp WP292015 3.90000 145.800 DB 20 1007 -3 1008 150 40 7 325
2015348N04146 2015 109 WP MM NOT_NAMED 2015-12-14 03:00:00 NR 4.19999 145.590 main 714 714 P_____________ WP292015 4.19999 145.590 DB 20 1007 -3 1009 150 40 8 320
2015348N04146 2015 109 WP MM NOT_NAMED 2015-12-14 06:00:00 NR 4.50000 145.300 main 753 753 O_____________ jtwc_wp WP292015 4.50000 145.300 DB 20 1007 -3 1011 150 40 9 310
2015348N04146 2015 109 WP MM NOT_NAMED 2015-12-14 09:00:00 NR 4.80002 144.880 main 796 796 P_____________ WP292015 4.80002 144.880 DB 22 1005 -3 1011 150 40 11 304
2015348N04146 2015 109 WP MM NOT_NAMED 2015-12-14 12:00:00 TS 5.10000 144.400 main 843 843 O_____________ jtwc_wp WP292015 5.10000 144.400 TD 25 1004 -1 1011 150 40 11 306
2015348N04146 2015 109 WP MM NOT_NAMED 2015-12-14 15:00:00 TS 5.43732 144.002 main 888 888 P_____________ WP292015 5.43732 144.002 TD 25 1004 -1 1008 150 40 11 304
2015348N04146 2015 109 WP MM NOT_NAMED 2015-12-14 18:00:00 TS 5.70000 143.500 main 939 939 O_____________ jtwc_wp WP292015 5.70000 143.500 TD 25 1004 -1 1006 150 40 13 286
2015348N04146 2015 109 WP MM NOT_NAMED 2015-12-14 21:00:00 TS 5.78763 142.737 main 953 922 P_____________ WP292015 5.78763 142.737 TD 22 1005 -1 1007 165 40 16 274
2015348N04146 2015 109 WP MM NOT_NAMED 2015-12-15 00:00:00 NR 5.80000 141.900 main 922 893 O_____________ jtwc_wp WP292015 5.80000 141.900 DB 20 1007 -3 1008 180 40 16 271
2015348N04146 2015 109 WP MM NOT_NAMED 2015-12-15 03:00:00 NR 5.82738 141.177 main 893 878 P_____________ WP292015 5.82738 141.177 DB 20 1007 -3 1008 180 40 14 274
2015348N04146 2015 109 WP MM NOT_NAMED 2015-12-15 06:00:00 NR 5.90000 140.500 main 878 869 O_____________ jtwc_wp WP292015 5.90000 140.500 DB 20 1007 -3 1008 180 40 13 280
2015348N04146 2015 109 WP MM NOT_NAMED 2015-12-15 09:00:00 NR 6.05490 139.842 main 881 870 P_____________ WP292015 6.05490 139.842 DB 20 1007 -3 1008 180 40 14 287
2015348N04146 2015 109 WP MM NOT_NAMED 2015-12-15 12:00:00 NR 6.30000 139.200 main 876 871 O_____________ jtwc_wp WP292015 6.30000 139.200 DB 20 1007 -3 1008 180 40 14 296
2015348N04146 2015 109 WP MM NOT_NAMED 2015-12-15 15:00:00 NR 6.65732 138.573 main 892 885 P_____________ WP292015 6.65732 138.573 DB 20 1007 -3 1008 185 40 15 298
2015348N04146 2015 109 WP MM NOT_NAMED 2015-12-15 18:00:00 NR 7.00000 137.900 main 899 894 O_____________ jtwc_wp WP292015 7.00000 137.900 DB 20 1007 -3 1008 190 40 15 290
2015348N04146 2015 109 WP MM NOT_NAMED 2015-12-15 21:00:00 NR 7.18747 137.122 main 900 895 P_____________ WP292015 7.18747 137.122 DB 20 1007 -3 1007 192 40 16 281
2015348N04146 2015 109 WP MM NOT_NAMED 2015-12-16 00:00:00 NR 7.30000 136.300 main 899 896 O_____________ jtwc_wp WP292015 7.30000 136.300 DB 20 1007 -3 1006 195 40 17 276
2015348N04146 2015 109 WP MM NOT_NAMED 2015-12-16 03:00:00 NR 7.37004 135.462 main 907 869 P_____________ WP292015 7.37004 135.462 DB 20 1007 -3 1006 195 40 16 277
2015348N04146 2015 109 WP MM NOT_NAMED 2015-12-16 06:00:00 NR 7.50000 134.700 main 869 827 O_____________ jtwc_wp WP292015 7.50000 134.700 DB 20 1007 -3 1006 195 40 14 289
2015348N04146 2015 109 WP MM NOT_NAMED 2015-12-16 09:00:00 NR 7.83481 134.098 main 827 761 P_____________ WP292015 7.83481 134.098 DB 17 1008 -3 1006 195 40 14 298
2015348N04146 2015 109 WP MM NOT_NAMED 2015-12-16 12:00:00 TS 8.18000 133.420 main 751 697 O_O___________ jtwc_wp WP292015 8.20000 133.600 DB 15 1010 -3 1006 195 40 8.10000 132.700 0 19 1010 13 294
2015348N04146 2015 109 WP MM NOT_NAMED 2015-12-16 15:00:00 TS 8.35583 132.902 main 698 654 P_P___________ WP292015 8.45248 133.105 DB 15 1010 -3 1006 187 40 8.16253 132.498 0 19 1010 9 286
2015348N04146 2015 109 WP MM NOT_NAMED 2015-12-16 18:00:00 TS 8.42857 132.529 main 654 633 O_O___________ jtwc_wp WP292015 8.60000 132.700 DB 15 1010 -3 1007 180 40 8.20000 132.300 0 19 1010 6 276
2015348N04146 2015 109 WP MM NOT_NAMED 2015-12-16 21:00:00 TS 8.42617 132.275 main 633 611 P_P___________ WP292015 8.65236 132.442 DB 15 1010 -3 1007 180 40 8.19998 132.107 0 22 1009 5 267
2015348N04146 2015 109 WP MM NOT_NAMED 2015-12-17 00:00:00 TS 8.40000 132.050 main 611 577 O_O___________ jtwc_wp WP292015 8.60000 132.200 DB 15 1010 -3 1008 180 40 8.20000 131.900 1 25 1008 5 261
2015348N04146 2015 109 WP MM NOT_NAMED 2015-12-17 03:00:00 TS 8.34625 131.744 main 566 533 P_P___________ WP292015 8.45006 131.807 DB 15 1010 -3 1008 180 40 8.24245 131.680 1 25 1008 7 261
2015348N04146 2015 109 WP MM NOT_NAMED 2015-12-17 06:00:00 TS 8.30000 131.400 main 533 500 O_O___________ jtwc_wp WP292015 8.30000 131.400 DB 15 1010 -3 1008 180 40 8.30000 131.400 1 25 1008 7 269
2015348N04146 2015 109 WP MM NOT_NAMED 2015-12-17 09:00:00 TS 8.33621 131.061 main 500 458 P_P___________ WP292015 8.29988 131.108 DB 17 1008 -3 1008 180 40 8.37254 131.015 1 25 1008 7 274
2015348N04146 2015 109 WP MM NOT_NAMED 2015-12-17 12:00:00 TS 8.35000 130.700 main 458 413 O_O___________ jtwc_wp WP292015 8.30000 130.800 DB 20 1007 -3 1008 180 40 8.40000 130.600 1 25 1008 7 265
2015348N04146 2015 109 WP MM NOT_NAMED 2015-12-17 15:00:00 TS 8.26618 130.323 main 413 366 P_P___________ WP292015 8.17996 130.387 DB 20 1007 -3 1007 180 40 8.35240 130.258 1 25 1008 8 252
2015348N04146 2015 109 WP MM NOT_NAMED 2015-12-17 18:00:00 TS 8.10000 129.900 main 366 309 O_O___________ jtwc_wp WP292015 8.00000 129.900 DB 20 1007 -3 1007 180 40 8.20000 129.900 1 25 1008 10 246
2015348N04146 2015 109 WP MM NOT_NAMED 2015-12-17 21:00:00 TS 7.85008 129.385 main 309 253 P_P___________ WP292015 7.79263 129.320 DB 20 1007 -3 1007 180 40 7.90754 129.450 1 25 1008 11 243
2015348N04146 2015 109 WP MM NOT_NAMED 2015-12-18 00:00:00 TS 7.60000 128.914 main 253 220 O_O___________ jtwc_wp WP292015 7.60000 128.800 DB 20 1007 -3 1007 180 40 7.60000 129.000 1 25 1008 9 242
2015348N04146 2015 109 WP MM NOT_NAMED 2015-12-18 03:00:00 TS 7.42908 128.590 main 220 187 P_P___________ WP292015 7.47741 128.485 DB 17 1008 -3 1007 180 40 7.40492 128.643 1 25 1008 7 245
2015348N04146 2015 109 WP MM NOT_NAMED 2015-12-18 06:00:00 TS 7.32000 128.300 main 187 143 O_O___________ jtwc_wp WP292015 7.40000 128.300 DB 15 1010 -3 1007 180 40 7.30000 128.300 1 25 1008 7 258
2015348N04146 2015 109 WP MM NOT_NAMED 2015-12-18 09:00:00 TS 7.27752 127.893 main 143 99 __P___________ WP292015 DB -3 7.27752 127.893 1 25 1008 8 269
2015348N04146 2015 109 WP MM NOT_NAMED 2015-12-18 12:00:00 TS 7.30000 127.500 main 99 66 __O___________ 7.30000 127.500 1 25 1008 7 271
2015348N04146 2015 109 WP MM NOT_NAMED 2015-12-18 15:00:00 TS 7.29241 127.200 main 66 33 __P___________ 7.29241 127.200 1 25 1008 6 270
2015348N04146 2015 109 WP MM NOT_NAMED 2015-12-18 18:00:00 TS 7.30000 126.900 main 33 0 __O___________ 7.30000 126.900 1 25 1008 7 274
2015348N04146 2015 109 WP MM NOT_NAMED 2015-12-18 21:00:00 TS 7.34250 126.515 main 0 0 __P___________ 7.34250 126.515 1 22 1009 8 277
2015348N04146 2015 109 WP MM NOT_NAMED 2015-12-19 00:00:00 TS 7.40000 126.100 main 0 0 __O___________ 7.40000 126.100 0 19 1010 8 278
2015348N04146 2015 109 WP MM NOT_NAMED 2015-12-19 03:00:00 TS 7.44994 125.707 main 0 0 __P___________ 7.44994 125.707 0 19 1010 8 277
2015348N04146 2015 109 WP MM NOT_NAMED 2015-12-19 06:00:00 TS 7.50000 125.300 main 0 0 __O___________ 7.50000 125.300 0 19 1010 8 277
2015348N04146 2015 109 WP MM NOT_NAMED 2015-12-19 09:00:00 TS 7.55011 124.860 main 0 0 __P___________ 7.55011 124.860 0 19 1010 9 276
2015348N04146 2015 109 WP MM NOT_NAMED 2015-12-19 12:00:00 TS 7.60000 124.400 main 0 __O___________ 7.60000 124.400 0 19 1010 9 276

デジタル台風データ・検索

IBTrACS Databaseについて

本データベースは、米国NOAAが公開する1842年以降の世界の熱帯低気圧のベストトラックデータアーカイブInternational Best Track Archive for Climate Stewardship (IBTrACS)を、ウェブで閲覧しやすい形式に変換したものです。

最終更新日:2021-10-08